Time;durP1;ratioP1;P1;durP2;ratioP2;P2;SDS_P1;SDS_P2;PMS_P1;PMS_P2;Temp;Humidity;BMP_temperature;BMP_pressure;BME280_temperature;BME280_humidity;BME280_pressure;Samples;Min_cycle;Max_cycle;Signal;HPM_P1;HPM_P2
2021/09/01 00:00:50;;;;;;;13.68;6.03;;;15.90;80.20;;;;;;4958253;28;20118;-92
2021/09/01 00:03:17;;;;;;;18.33;6.97;;;15.90;80.10;;;;;;4973101;28;20050;-92
2021/09/01 00:05:44;;;;;;;20.08;7.57;;;15.90;80.00;;;;;;4957534;28;20062;-93
2021/09/01 00:08:11;;;;;;;15.73;6.97;;;15.90;80.00;;;;;;4973193;28;20043;-91
2021/09/01 00:10:38;;;;;;;12.63;6.63;;;16.00;79.90;;;;;;4955528;28;20047;-92
2021/09/01 00:13:05;;;;;;;17.88;7.50;;;16.00;79.90;;;;;;4958165;28;20580;-93
2021/09/01 00:15:32;;;;;;;15.90;6.93;;;16.00;79.90;;;;;;4957573;28;20073;-92
2021/09/01 00:17:59;;;;;;;17.45;7.28;;;16.10;80.00;;;;;;4957626;28;20070;-93
2021/09/01 00:20:26;;;;;;;20.85;7.65;;;16.10;79.90;;;;;;4958440;28;20106;-92
2021/09/01 00:22:54;;;;;;;14.00;7.55;;;16.00;79.90;;;;;;4958352;28;20043;-93
2021/09/01 00:25:22;;;;;;;16.33;7.53;;;16.00;79.90;;;;;;4955751;28;20047;-92
2021/09/01 00:27:49;;;;;;;14.07;7.35;;;16.10;79.90;;;;;;4969236;28;20098;-91
2021/09/01 00:30:16;;;;;;;16.70;7.22;;;16.10;79.90;;;;;;4957501;28;20063;-94
2021/09/01 00:32:42;;;;;;;14.40;7.63;;;16.10;79.90;;;;;;4958493;29;20043;-94
2021/09/01 00:35:10;;;;;;;15.55;8.07;;;16.10;79.90;;;;;;4957760;28;20067;-93
2021/09/01 00:37:38;;;;;;;18.48;6.75;;;16.10;79.90;;;;;;4957308;28;20051;-91
2021/09/01 00:40:05;;;;;;;17.80;7.65;;;16.10;79.90;;;;;;4956818;28;20047;-93
2021/09/01 00:42:37;;;;;;;13.52;7.22;;;16.10;79.80;;;;;;4972033;28;20059;-92
2021/09/01 00:45:05;;;;;;;15.55;7.03;;;16.10;79.80;;;;;;4942041;28;20106;-92
2021/09/01 00:47:32;;;;;;;19.00;7.15;;;16.10;79.80;;;;;;4957446;28;20059;-91
2021/09/01 00:49:59;;;;;;;18.67;7.18;;;16.10;79.80;;;;;;4952467;28;20063;-91
2021/09/01 00:52:29;;;;;;;15.15;7.85;;;16.10;79.80;;;;;;4953341;28;20051;-94
2021/09/01 00:54:57;;;;;;;14.00;7.43;;;16.10;79.90;;;;;;4970876;28;20055;-92
2021/09/01 00:57:24;;;;;;;18.92;7.05;;;16.10;79.90;;;;;;4971972;28;20052;-92
2021/09/01 00:59:51;;;;;;;18.17;7.25;;;16.10;79.90;;;;;;4956248;28;20062;-92
2021/09/01 01:02:18;;;;;;;16.10;7.03;;;16.10;79.90;;;;;;4972019;28;20102;-91
2021/09/01 01:04:45;;;;;;;12.00;6.78;;;16.10;79.90;;;;;;4956623;28;20134;-92
2021/09/01 01:07:12;;;;;;;14.05;7.72;;;16.10;79.90;;;;;;4956452;28;20054;-90
2021/09/01 01:09:45;;;;;;;16.05;7.38;;;16.10;79.90;;;;;;4972687;28;20058;-94
2021/09/01 01:12:17;;;;;;;26.15;7.28;;;16.10;79.90;;;;;;4956512;28;20429;-91
2021/09/01 01:14:46;;;;;;;18.08;7.43;;;16.10;79.90;;;;;;4971691;28;20055;-91
2021/09/01 01:17:15;;;;;;;17.35;7.32;;;16.10;79.90;;;;;;4956525;28;20047;-94
2021/09/01 01:19:48;;;;;;;17.02;7.15;;;16.10;79.90;;;;;;4939064;28;20064;-92
2021/09/01 01:22:23;;;;;;;14.93;6.72;;;16.20;79.90;;;;;;4949138;29;20054;-92
2021/09/01 01:24:57;;;;;;;15.77;6.75;;;16.20;79.90;;;;;;4971585;28;20059;-93
2021/09/01 01:27:29;;;;;;;14.25;6.75;;;16.20;79.90;;;;;;4971643;28;20065;-90
2021/09/01 01:30:16;;;;;;;17.77;7.15;;;16.20;79.90;;;;;;4955718;28;20055;-94
2021/09/01 01:32:46;;;;;;;15.40;6.82;;;16.20;79.90;;;;;;4953441;28;20062;-92
2021/09/01 01:35:44;;;;;;;13.45;6.68;;;16.10;79.90;;;;;;4971711;28;20051;-92
2021/09/01 01:38:17;;;;;;;13.32;6.65;;;16.10;79.90;;;;;;4961746;28;20047;-91
2021/09/01 01:40:46;;;;;;;14.13;6.78;;;16.20;80.00;;;;;;4971260;28;20055;-92
2021/09/01 01:43:13;;;;;;;13.70;6.55;;;16.20;80.00;;;;;;4985183;28;20051;-94
2021/09/01 01:45:45;;;;;;;14.38;6.40;;;16.20;79.90;;;;;;4967643;28;20051;-91
2021/09/01 01:48:14;;;;;;;15.10;6.63;;;16.10;79.90;;;;;;4971030;28;20046;-90
2021/09/01 01:50:43;;;;;;;16.27;7.03;;;16.20;79.90;;;;;;4954984;28;20063;-92
2021/09/01 01:53:10;;;;;;;19.75;6.95;;;16.20;79.90;;;;;;4970868;28;20149;-92
2021/09/01 01:55:37;;;;;;;17.13;6.30;;;16.20;79.90;;;;;;4954633;28;20059;-93
2021/09/01 01:58:04;;;;;;;14.73;6.50;;;16.20;79.90;;;;;;4953111;29;20121;-90
2021/09/01 02:00:31;;;;;;;14.50;6.15;;;16.20;79.90;;;;;;4955799;28;20055;-92
2021/09/01 02:02:58;;;;;;;19.65;7.50;;;16.20;79.90;;;;;;4970477;28;20049;-92
2021/09/01 02:05:26;;;;;;;14.60;6.38;;;16.20;79.90;;;;;;4955935;28;20058;-92
2021/09/01 02:07:53;;;;;;;22.80;7.30;;;16.20;79.90;;;;;;4955134;28;20059;-93
2021/09/01 02:10:20;;;;;;;10.65;6.25;;;16.20;79.90;;;;;;4954633;28;20047;-92
2021/09/01 02:12:47;;;;;;;14.90;6.65;;;16.20;79.80;;;;;;4955544;28;20572;-92
2021/09/01 02:15:14;;;;;;;11.95;6.28;;;16.20;79.80;;;;;;4950230;28;20047;-93
2021/09/01 02:17:42;;;;;;;14.48;6.45;;;16.20;79.80;;;;;;4951802;29;20063;-92
2021/09/01 02:20:11;;;;;;;14.10;6.22;;;16.20;79.70;;;;;;4954902;29;20055;-90
2021/09/01 02:22:39;;;;;;;9.55;5.65;;;16.20;79.70;;;;;;4955816;28;20054;-93
2021/09/01 02:25:07;;;;;;;14.27;5.72;;;16.20;79.70;;;;;;4970521;28;20090;-91
2021/09/01 02:27:34;;;;;;;15.13;6.03;;;16.20;79.70;;;;;;4952645;28;20121;-91
2021/09/01 02:30:01;;;;;;;10.40;5.50;;;16.30;79.70;;;;;;4955223;29;20051;-90
2021/09/01 02:32:28;;;;;;;17.67;6.18;;;16.20;79.80;;;;;;4970618;28;20058;-91
2021/09/01 02:34:55;;;;;;;16.25;6.63;;;16.20;79.70;;;;;;4955949;29;20051;-91
2021/09/01 02:37:22;;;;;;;16.67;5.85;;;16.20;79.70;;;;;;4955666;28;20434;-91
2021/09/01 02:39:49;;;;;;;13.60;6.68;;;16.20;79.70;;;;;;4954705;28;20054;-91
2021/09/01 02:42:16;;;;;;;18.40;6.32;;;16.20;79.80;;;;;;4952289;28;20494;-91
2021/09/01 02:44:43;;;;;;;12.55;5.55;;;16.20;79.80;;;;;;4955112;28;20059;-91
2021/09/01 02:47:10;;;;;;;12.35;5.75;;;16.20;79.70;;;;;;4970343;28;20063;-93
2021/09/01 02:49:37;;;;;;;16.88;5.50;;;16.20;79.80;;;;;;4970065;28;20051;-91
2021/09/01 02:52:04;;;;;;;16.02;6.03;;;16.20;79.80;;;;;;4954988;28;20086;-92
2021/09/01 02:54:31;;;;;;;15.65;5.85;;;16.20;79.80;;;;;;4948685;28;20055;-91
2021/09/01 02:56:58;;;;;;;15.23;6.38;;;16.20;79.70;;;;;;4936325;29;20056;-91
2021/09/01 02:59:25;;;;;;;25.60;6.38;;;16.20;79.70;;;;;;4949276;29;20051;-94
2021/09/01 03:01:52;;;;;;;17.13;5.93;;;16.20;79.70;;;;;;4971057;28;20564;-91
2021/09/01 03:04:19;;;;;;;14.00;5.47;;;16.20;79.60;;;;;;4969607;28;20142;-93
2021/09/01 03:06:46;;;;;;;13.70;5.88;;;16.20;79.70;;;;;;4954060;28;20090;-92
2021/09/01 03:09:13;;;;;;;13.43;6.03;;;16.20;79.70;;;;;;4954407;28;20047;-91
2021/09/01 03:11:40;;;;;;;14.55;5.60;;;16.20;79.70;;;;;;4954057;28;20568;-91
2021/09/01 03:14:08;;;;;;;8.98;4.38;;;16.20;79.70;;;;;;4970377;28;20118;-91
2021/09/01 03:16:35;;;;;;;17.85;5.50;;;16.30;79.70;;;;;;4970932;28;20126;-93
2021/09/01 03:19:02;;;;;;;14.30;4.88;;;16.20;79.70;;;;;;4958164;28;20102;-92
2021/09/01 03:21:29;;;;;;;15.55;5.68;;;16.20;79.70;;;;;;4973389;28;20058;-92
2021/09/01 03:23:56;;;;;;;12.07;4.97;;;16.20;79.70;;;;;;4973528;28;20047;-91
2021/09/01 03:26:26;;;;;;;10.88;5.63;;;16.20;79.70;;;;;;4959278;28;20063;-90
2021/09/01 03:28:53;;;;;;;15.63;5.95;;;16.20;79.80;;;;;;4973505;28;20502;-91
2021/09/01 03:31:20;;;;;;;13.13;5.50;;;16.20;79.70;;;;;;4958483;28;20051;-92
2021/09/01 03:33:48;;;;;;;8.60;4.63;;;16.20;79.70;;;;;;4958342;28;20095;-93
2021/09/01 03:36:15;;;;;;;16.45;5.55;;;16.20;79.70;;;;;;4956331;28;20117;-91
2021/09/01 03:38:42;;;;;;;13.07;5.22;;;16.20;79.70;;;;;;4958134;28;20118;-93
2021/09/01 03:41:09;;;;;;;18.02;5.35;;;16.20;79.70;;;;;;4958555;28;20058;-92
2021/09/01 03:43:36;;;;;;;15.63;5.30;;;16.20;79.60;;;;;;4956752;28;20418;-91
2021/09/01 03:46:03;;;;;;;15.63;5.60;;;16.20;79.60;;;;;;4973554;28;20059;-91
2021/09/01 03:48:30;;;;;;;13.30;5.38;;;16.20;79.50;;;;;;4973422;28;20051;-92
2021/09/01 03:50:56;;;;;;;13.07;5.43;;;16.20;79.40;;;;;;4973366;28;24591;-91
2021/09/01 03:53:23;;;;;;;17.17;5.82;;;16.20;79.20;;;;;;4973770;28;20110;-92
2021/09/01 03:55:51;;;;;;;16.88;5.90;;;16.10;79.00;;;;;;4973292;28;20051;-93
2021/09/01 03:58:17;;;;;;;14.68;4.97;;;16.20;79.00;;;;;;4973124;28;20080;-92
2021/09/01 04:00:44;;;;;;;12.73;5.05;;;16.10;79.00;;;;;;4958169;28;20055;-92
2021/09/01 04:03:12;;;;;;;13.15;5.47;;;16.20;79.10;;;;;;4973302;28;20474;-91
2021/09/01 04:05:39;;;;;;;14.93;6.03;;;16.10;79.10;;;;;;4958372;28;20126;-91
2021/09/01 04:08:06;;;;;;;17.92;6.88;;;16.10;79.00;;;;;;4958653;28;20054;-91
2021/09/01 04:10:33;;;;;;;17.25;5.32;;;16.10;79.00;;;;;;4958741;29;20477;-91
2021/09/01 04:13:00;;;;;;;13.15;5.47;;;16.10;78.90;;;;;;4957392;28;20066;-92
2021/09/01 04:15:27;;;;;;;13.18;5.60;;;16.20;78.90;;;;;;4957039;28;20044;-90
2021/09/01 04:17:54;;;;;;;16.92;5.57;;;16.10;78.90;;;;;;4959275;28;20453;-92
2021/09/01 04:20:21;;;;;;;12.63;5.35;;;16.10;79.00;;;;;;4973149;28;20094;-92
2021/09/01 04:22:48;;;;;;;15.00;5.40;;;16.20;78.90;;;;;;4957178;28;20047;-93
2021/09/01 04:25:15;;;;;;;17.35;5.43;;;16.10;78.90;;;;;;4958190;28;20059;-93
2021/09/01 04:27:42;;;;;;;13.52;5.00;;;16.10;78.90;;;;;;4957178;28;20425;-92
2021/09/01 04:30:09;;;;;;;14.57;4.90;;;16.10;79.00;;;;;;4972504;28;20054;-92
2021/09/01 04:32:36;;;;;;;14.80;5.28;;;16.10;79.00;;;;;;4973069;28;20051;-93
2021/09/01 04:35:03;;;;;;;13.85;5.15;;;16.10;79.10;;;;;;4972983;28;20065;-94
2021/09/01 04:37:31;;;;;;;13.25;4.63;;;16.10;79.10;;;;;;4973197;28;20506;-92
2021/09/01 04:39:57;;;;;;;9.80;4.72;;;16.10;79.10;;;;;;4972591;28;20051;-91
2021/09/01 04:42:24;;;;;;;17.33;5.50;;;16.10;79.20;;;;;;4972889;28;20059;-93
2021/09/01 04:44:51;;;;;;;17.85;5.35;;;16.10;79.10;;;;;;4972521;28;20059;-92
2021/09/01 04:47:18;;;;;;;16.15;5.07;;;16.10;79.20;;;;;;4956894;29;20059;-94
2021/09/01 04:49:45;;;;;;;14.70;5.10;;;16.10;79.20;;;;;;4956608;28;20063;-92
2021/09/01 04:52:12;;;;;;;12.60;4.68;;;16.10;79.30;;;;;;4972532;28;20047;-92
2021/09/01 04:54:39;;;;;;;11.85;4.88;;;16.10;79.30;;;;;;4972278;28;20058;-92
2021/09/01 04:57:06;;;;;;;12.50;5.10;;;16.10;79.30;;;;;;4974559;28;20502;-93
2021/09/01 04:59:33;;;;;;;13.68;4.50;;;16.10;79.30;;;;;;4957403;28;20126;-92
2021/09/01 05:01:59;;;;;;;16.80;4.82;;;16.20;79.20;;;;;;4956357;28;20395;-94
2021/09/01 05:04:27;;;;;;;18.95;5.65;;;16.20;79.20;;;;;;4960470;28;20513;-92
2021/09/01 05:06:54;;;;;;;19.08;5.15;;;16.10;79.10;;;;;;4972817;28;20055;-93
2021/09/01 05:09:20;;;;;;;13.10;4.97;;;16.10;79.00;;;;;;4956951;28;20059;-92
2021/09/01 05:11:47;;;;;;;16.40;4.88;;;16.10;78.80;;;;;;4972209;28;20070;-92
2021/09/01 05:14:14;;;;;;;13.77;5.47;;;16.10;78.80;;;;;;4972366;28;20050;-94
2021/09/01 05:16:41;;;;;;;18.17;5.28;;;16.10;78.70;;;;;;4955112;28;20051;-93
2021/09/01 05:19:09;;;;;;;17.65;5.13;;;16.10;78.60;;;;;;4957097;29;20076;-92
2021/09/01 05:21:41;;;;;;;17.30;5.40;;;16.10;78.60;;;;;;4955979;28;20054;-91
2021/09/01 05:24:13;;;;;;;16.50;5.45;;;16.10;78.50;;;;;;4955601;28;20047;-91
2021/09/01 05:26:42;;;;;;;16.48;5.32;;;16.10;78.50;;;;;;4957634;28;20067;-93
2021/09/01 05:29:10;;;;;;;19.10;5.60;;;16.10;78.50;;;;;;4973592;28;20067;-93
2021/09/01 05:31:37;;;;;;;10.20;4.63;;;16.10;78.50;;;;;;4970656;28;20422;-93
2021/09/01 05:34:04;;;;;;;18.67;5.47;;;16.00;78.40;;;;;;4958240;28;20051;-93
2021/09/01 05:36:33;;;;;;;22.88;5.70;;;16.00;78.40;;;;;;4959449;28;20055;-94
2021/09/01 05:39:01;;;;;;;16.90;5.15;;;16.00;78.40;;;;;;4939972;28;20062;-93
2021/09/01 05:41:29;;;;;;;21.70;5.80;;;16.00;78.40;;;;;;4974987;28;20055;-94
2021/09/01 05:43:58;;;;;;;12.77;4.68;;;16.00;78.50;;;;;;4937097;29;20422;-93
2021/09/01 05:46:25;;;;;;;21.88;5.63;;;16.00;78.50;;;;;;4952964;28;20054;-92
2021/09/01 05:48:53;;;;;;;19.80;6.07;;;16.00;78.60;;;;;;4971613;28;20501;-91
2021/09/01 05:51:22;;;;;;;16.23;4.85;;;16.10;78.60;;;;;;4968128;28;20067;-92
2021/09/01 05:53:48;;;;;;;11.93;4.75;;;16.00;78.60;;;;;;4953568;28;20068;-90
2021/09/01 05:56:21;;;;;;;13.32;5.75;;;16.10;78.60;;;;;;4949873;28;20110;-92
2021/09/01 05:58:54;;;;;;;19.45;5.72;;;16.10;78.60;;;;;;4940045;29;20553;-91
2021/09/01 06:01:27;;;;;;;15.47;5.00;;;16.10;78.60;;;;;;4965638;28;20110;-91
2021/09/01 06:03:58;;;;;;;16.05;5.35;;;16.10;78.60;;;;;;4970700;28;20055;-93
2021/09/01 06:06:27;;;;;;;17.67;6.00;;;16.10;78.60;;;;;;4975154;28;22899;-95
2021/09/01 06:08:59;;;;;;;19.48;6.38;;;16.10;78.50;;;;;;4956282;28;20403;-94
2021/09/01 06:11:30;;;;;;;15.65;5.90;;;16.10;78.50;;;;;;4979688;28;20047;-93
2021/09/01 06:13:57;;;;;;;18.45;5.93;;;16.10;78.40;;;;;;4974351;28;20051;-92
2021/09/01 06:16:24;;;;;;;19.58;6.22;;;16.10;78.40;;;;;;4964505;28;20047;-94
2021/09/01 06:18:52;;;;;;;21.98;6.82;;;16.10;78.50;;;;;;4959964;28;20055;-93
2021/09/01 06:21:19;;;;;;;13.00;6.18;;;16.10;78.40;;;;;;4964994;28;20051;-93
2021/09/01 06:23:46;;;;;;;17.50;7.68;;;16.10;78.30;;;;;;4966640;28;20069;-93
2021/09/01 06:26:13;;;;;;;20.08;7.47;;;16.10;78.20;;;;;;4975596;28;20042;-90
2021/09/01 06:28:44;;;;;;;17.52;7.95;;;16.10;78.20;;;;;;4977640;28;20066;-93
2021/09/01 06:31:11;;;;;;;18.77;7.25;;;16.10;78.30;;;;;;4969357;28;20470;-92
2021/09/01 06:33:38;;;;;;;16.25;6.20;;;16.10;78.30;;;;;;4983765;28;20083;-91
2021/09/01 06:36:08;;;;;;;24.95;8.02;;;16.10;78.20;;;;;;4985952;28;20051;-94
2021/09/01 06:38:38;;;;;;;23.50;8.40;;;16.10;78.20;;;;;;4989937;28;20059;-93
2021/09/01 06:41:05;;;;;;;22.60;7.65;;;16.10;78.10;;;;;;4985303;28;20049;-94
2021/09/01 06:43:32;;;;;;;17.63;7.00;;;16.10;78.10;;;;;;4965117;28;20141;-92
2021/09/01 06:45:59;;;;;;;17.63;8.00;;;16.20;78.00;;;;;;4969747;28;20039;-92
2021/09/01 06:48:26;;;;;;;22.67;8.13;;;16.20;77.90;;;;;;4984490;28;20054;-95
2021/09/01 06:50:54;;;;;;;14.65;6.03;;;16.20;77.80;;;;;;4985865;28;20060;-93
2021/09/01 06:53:21;;;;;;;15.05;7.72;;;16.20;77.80;;;;;;4959806;28;20058;-94
2021/09/01 06:55:51;;;;;;;14.88;7.38;;;16.20;77.80;;;;;;4969808;28;20050;-94
2021/09/01 06:58:19;;;;;;;22.75;7.93;;;16.20;77.80;;;;;;4970586;28;20055;-94
2021/09/01 07:00:47;;;;;;;19.70;7.72;;;16.20;77.80;;;;;;4974626;28;20055;-94
2021/09/01 07:03:15;;;;;;;20.75;8.02;;;16.20;77.70;;;;;;4981120;28;20051;-94
2021/09/01 07:05:42;;;;;;;30.77;8.55;;;16.20;77.60;;;;;;4987478;28;20058;-93
2021/09/01 07:08:32;;;;;;;19.17;8.35;;;16.20;77.60;;;;;;4978223;28;20105;-94
2021/09/01 07:11:00;;;;;;;24.27;7.57;;;16.30;77.50;;;;;;4965503;28;20055;-93
2021/09/01 07:13:26;;;;;;;18.17;7.88;;;16.30;77.60;;;;;;4958513;28;20035;-94
2021/09/01 07:15:53;;;;;;;19.77;8.43;;;16.30;77.60;;;;;;4976981;28;20062;-92
2021/09/01 07:18:21;;;;;;;21.58;8.10;;;16.30;77.50;;;;;;4978857;28;20123;-94
2021/09/01 07:20:48;;;;;;;20.35;7.68;;;16.30;77.60;;;;;;4960123;29;20039;-94
2021/09/01 07:23:16;;;;;;;18.50;8.15;;;16.30;77.60;;;;;;4958378;28;20054;-94
2021/09/01 07:25:44;;;;;;;21.77;8.73;;;16.30;77.50;;;;;;4977682;28;20027;-93
2021/09/01 07:28:11;;;;;;;16.85;7.68;;;16.40;77.40;;;;;;4957558;28;20051;-93
2021/09/01 07:30:38;;;;;;;24.67;9.20;;;16.40;77.40;;;;;;4968684;28;20047;-94
2021/09/01 07:33:05;;;;;;;19.55;8.93;;;16.40;77.40;;;;;;4965996;28;20058;-93
2021/09/01 07:35:32;;;;;;;16.10;7.78;;;16.40;77.30;;;;;;4980671;28;20063;-94
2021/09/01 07:37:59;;;;;;;21.55;8.48;;;16.40;77.20;;;;;;4961505;28;20460;-94
2021/09/01 07:40:26;;;;;;;25.17;8.80;;;16.40;77.20;;;;;;4973409;28;20107;-93
2021/09/01 07:42:55;;;;;;;21.38;9.05;;;16.50;77.10;;;;;;4961390;28;20051;-93
2021/09/01 07:45:22;;;;;;;22.77;9.00;;;16.50;77.00;;;;;;4941872;28;20063;-92
2021/09/01 07:47:53;;;;;;;24.17;9.90;;;16.50;76.90;;;;;;4942177;29;20063;-93
2021/09/01 07:50:26;;;;;;;22.00;9.20;;;16.60;76.90;;;;;;4942027;29;20059;-93
2021/09/01 07:52:53;;;;;;;22.08;10.43;;;16.60;76.70;;;;;;4954558;28;20052;-94
2021/09/01 07:55:20;;;;;;;23.85;11.10;;;16.60;76.40;;;;;;4948098;28;20462;-93
2021/09/01 07:57:47;;;;;;;19.00;9.98;;;16.60;76.10;;;;;;4953661;28;20067;-94
2021/09/01 08:00:15;;;;;;;23.70;9.98;;;16.60;75.90;;;;;;4937618;29;20052;-93
2021/09/01 08:02:42;;;;;;;18.63;10.18;;;16.60;75.90;;;;;;4956815;28;20055;-93
2021/09/01 08:05:10;;;;;;;22.50;10.70;;;16.70;75.90;;;;;;4922466;29;20078;-95
2021/09/01 08:07:37;;;;;;;24.70;10.20;;;16.70;75.90;;;;;;4935135;29;20043;-94
2021/09/01 08:10:05;;;;;;;21.10;10.65;;;16.70;75.70;;;;;;4941222;29;20055;-93
2021/09/01 08:12:32;;;;;;;23.98;9.93;;;16.70;75.60;;;;;;4947648;29;20071;-94
2021/09/01 08:14:59;;;;;;;21.48;10.07;;;16.80;75.50;;;;;;4936194;29;20048;-92
2021/09/01 08:17:27;;;;;;;23.33;10.18;;;16.80;75.40;;;;;;4939039;29;20048;-93
2021/09/01 08:19:54;;;;;;;15.05;9.30;;;16.80;75.40;;;;;;4953866;28;20070;-91
2021/09/01 08:22:20;;;;;;;23.55;10.55;;;16.80;75.40;;;;;;4944754;28;20044;-93
2021/09/01 08:24:47;;;;;;;21.25;10.18;;;16.90;75.30;;;;;;4939101;29;20069;-92
2021/09/01 08:27:14;;;;;;;21.42;10.32;;;16.90;75.00;;;;;;4939915;29;20052;-92
2021/09/01 08:29:41;;;;;;;27.27;11.02;;;16.90;74.80;;;;;;4924503;29;20051;-93
2021/09/01 08:32:09;;;;;;;24.63;10.55;;;16.90;74.70;;;;;;4940334;29;20060;-93
2021/09/01 08:34:38;;;;;;;21.05;10.85;;;16.90;74.60;;;;;;4939591;29;20062;-94
2021/09/01 08:37:06;;;;;;;25.25;12.20;;;17.00;74.60;;;;;;4937891;29;20153;-88
2021/09/01 08:39:33;;;;;;;24.35;12.75;;;17.00;74.70;;;;;;4937907;29;20493;-92
2021/09/01 08:42:02;;;;;;;22.15;11.35;;;17.00;74.60;;;;;;4953717;28;20082;-93
2021/09/01 08:44:29;;;;;;;20.13;10.85;;;17.10;74.40;;;;;;4960501;28;20060;-93
2021/09/01 08:46:59;;;;;;;21.05;11.90;;;17.00;74.10;;;;;;4951272;28;20052;-93
2021/09/01 08:49:29;;;;;;;30.42;13.25;;;17.00;73.60;;;;;;4957125;28;20043;-93
2021/09/01 08:51:57;;;;;;;21.70;11.48;;;17.00;73.60;;;;;;4968864;28;20110;-94
2021/09/01 08:54:24;;;;;;;22.48;11.15;;;17.10;73.60;;;;;;4967674;28;20048;-96
2021/09/01 08:56:51;;;;;;;24.50;11.50;;;17.10;73.80;;;;;;4942392;28;20050;-93
2021/09/01 08:59:21;;;;;;;23.98;11.43;;;17.20;74.00;;;;;;4962889;28;20525;-94
2021/09/01 09:01:54;;;;;;;21.50;11.57;;;17.20;73.80;;;;;;4946739;28;20119;-93
2021/09/01 09:04:26;;;;;;;17.83;10.25;;;17.20;73.40;;;;;;4971139;28;20059;-95
2021/09/01 09:06:59;;;;;;;22.23;11.32;;;17.20;73.20;;;;;;4978022;28;20051;-92
2021/09/01 09:09:29;;;;;;;16.27;10.98;;;17.20;72.80;;;;;;4978435;28;20059;-94
2021/09/01 09:11:59;;;;;;;21.17;11.02;;;17.20;72.10;;;;;;4980660;28;20516;-94
2021/09/01 09:14:34;;;;;;;25.20;11.60;;;17.20;71.70;;;;;;4978703;28;20099;-94
2021/09/01 09:17:07;;;;;;;17.63;10.93;;;17.30;71.70;;;;;;4959974;28;20426;-94
2021/09/01 09:19:54;;;;;;;21.88;11.55;;;17.30;71.80;;;;;;4960851;28;20106;-93
2021/09/01 09:22:49;;;;;;;23.55;14.00;;;17.30;72.10;;;;;;4978832;28;20082;-94
2021/09/01 09:25:19;;;;;;;25.02;14.23;;;17.30;71.70;;;;;;4958481;28;20051;-92
2021/09/01 09:27:55;;;;;;;22.52;14.90;;;17.40;71.40;;;;;;4976482;28;20055;-94
2021/09/01 09:30:42;;;;;;;27.38;15.07;;;17.40;71.40;;;;;;4963804;28;20043;-93
2021/09/01 09:33:18;;;;;;;25.23;14.98;;;17.40;71.00;;;;;;4962243;28;20051;-94
2021/09/01 09:35:57;;;;;;;20.30;14.05;;;17.40;71.00;;;;;;4979604;28;20063;-93
2021/09/01 09:38:33;;;;;;;29.77;15.88;;;17.40;70.80;;;;;;4969885;28;20055;-93
2021/09/01 09:41:03;;;;;;;21.73;15.10;;;17.40;70.80;;;;;;4973518;28;20051;-94
2021/09/01 09:43:31;;;;;;;29.33;15.93;;;17.40;70.90;;;;;;4952123;29;20063;-93
2021/09/01 09:46:07;;;;;;;31.83;15.68;;;17.40;71.10;;;;;;4948057;29;20050;-90
2021/09/01 09:48:36;;;;;;;26.48;15.13;;;17.40;71.20;;;;;;4957006;29;20498;-95
2021/09/01 09:51:05;;;;;;;29.13;16.20;;;17.50;71.20;;;;;;4972323;28;20463;-94
2021/09/01 09:53:34;;;;;;;26.08;16.38;;;17.50;71.30;;;;;;4955389;28;20063;-96
2021/09/01 09:56:15;;;;;;;22.80;14.57;;;17.50;71.40;;;;;;4949099;29;20067;-94
2021/09/01 09:58:49;;;;;;;25.55;16.08;;;17.50;71.40;;;;;;4957572;28;20055;-94
2021/09/01 10:01:18;;;;;;;26.63;16.30;;;17.60;71.50;;;;;;4957634;28;20122;-93
2021/09/01 10:03:46;;;;;;;22.90;14.00;;;17.60;71.50;;;;;;4949535;29;20129;-92
2021/09/01 10:06:16;;;;;;;25.95;15.02;;;17.60;71.30;;;;;;4956755;28;20059;-92
2021/09/01 10:08:52;;;;;;;28.02;14.93;;;17.60;71.00;;;;;;4969731;28;20123;-92
2021/09/01 10:11:21;;;;;;;23.60;14.35;;;17.70;70.90;;;;;;4966066;28;20153;-90
2021/09/01 10:13:50;;;;;;;25.63;14.18;;;17.70;70.90;;;;;;4966797;28;20051;-93
2021/09/01 10:16:20;;;;;;;25.67;14.32;;;17.70;70.90;;;;;;4970998;28;20051;-94
2021/09/01 10:19:00;;;;;;;25.88;14.70;;;17.70;70.50;;;;;;4963524;28;20135;-90
2021/09/01 10:21:30;;;;;;;22.05;14.30;;;17.70;70.40;;;;;;4961532;28;20058;-92
2021/09/01 10:24:15;;;;;;;21.38;13.68;;;17.70;70.10;;;;;;4961877;28;20055;-92
2021/09/01 10:26:56;;;;;;;;;;;17.70;70.00;;;;;;4971229;28;20501;-92
2021/09/01 10:29:49;;;;;;;21.02;12.88;;;17.70;70.20;;;;;;4952320;29;19922;-92
2021/09/01 10:32:19;;;;;;;28.10;13.85;;;17.80;70.40;;;;;;4976701;28;20551;-93
2021/09/01 10:34:46;;;;;;;23.17;13.35;;;17.80;70.30;;;;;;4941576;28;20052;-93
2021/09/01 10:37:38;;;;;;;17.17;12.60;;;17.90;70.50;;;;;;4967708;28;20047;-95
2021/09/01 10:40:08;;;;;;;19.95;12.18;;;17.90;70.90;;;;;;4963044;28;20055;-93
2021/09/01 10:42:43;;;;;;;22.40;11.32;;;17.90;70.90;;;;;;4968564;28;20134;-94
2021/09/01 10:45:13;;;;;;;20.33;11.27;;;17.90;71.00;;;;;;4943238;28;20055;-93
2021/09/01 10:47:50;;;;;;;18.00;10.18;;;18.00;71.00;;;;;;4978515;28;20414;-95
2021/09/01 10:50:40;;;;;;;18.60;9.88;;;18.10;70.80;;;;;;4962093;28;20490;-93
2021/09/01 10:53:21;;;;;;;18.38;10.00;;;18.10;70.50;;;;;;4955541;28;20042;-95
2021/09/01 10:55:53;;;;;;;20.70;10.55;;;18.10;70.30;;;;;;4966709;28;20061;-95
2021/09/01 10:58:29;;;;;;;17.40;9.75;;;18.20;70.30;;;;;;4974826;28;20060;-92
2021/09/01 11:00:59;;;;;;;15.88;9.23;;;18.30;69.90;;;;;;4962164;28;20059;-95
2021/09/01 11:04:02;;;;;;;19.77;9.75;;;18.30;69.60;;;;;;4972320;28;20044;-94
2021/09/01 11:06:35;;;;;;;22.30;9.27;;;18.30;68.90;;;;;;4960847;28;20118;-91
2021/09/01 11:09:05;;;;;;;18.45;8.63;;;18.30;68.40;;;;;;4960344;28;20051;-91
2021/09/01 11:11:45;;;;;;;17.17;9.77;;;18.30;68.50;;;;;;4954370;28;20109;-93
2021/09/01 11:14:36;;;;;;;16.33;8.75;;;18.40;68.40;;;;;;4960664;28;20055;-94
2021/09/01 11:17:17;;;;;;;15.93;8.98;;;18.40;68.70;;;;;;4977132;28;20054;-94
2021/09/01 11:19:46;;;;;;;18.95;8.48;;;18.40;69.00;;;;;;4968008;28;20071;-95
2021/09/01 11:22:19;;;;;;;18.90;9.00;;;18.40;68.80;;;;;;4953173;29;20046;-93
2021/09/01 11:24:53;;;;;;;17.85;8.88;;;18.50;68.80;;;;;;4972073;28;20078;-92
2021/09/01 11:27:25;;;;;;;21.70;9.30;;;18.50;68.90;;;;;;4963844;28;20047;-93
2021/09/01 11:30:04;;;;;;;17.70;9.52;;;18.50;68.80;;;;;;4958779;28;20569;-92
2021/09/01 11:32:31;;;;;;;18.38;9.88;;;18.60;68.40;;;;;;4974911;28;20069;-96
2021/09/01 11:35:08;;;;;;;16.58;8.93;;;18.60;68.10;;;;;;4974903;28;20063;-93
2021/09/01 11:37:36;;;;;;;19.98;10.05;;;18.60;67.80;;;;;;4943955;28;20507;-93
2021/09/01 11:40:03;;;;;;;18.73;8.60;;;18.60;67.70;;;;;;4957589;28;20055;-91
2021/09/01 11:42:34;;;;;;;15.13;8.30;;;18.60;67.80;;;;;;4947999;29;20138;-93
2021/09/01 11:45:08;;;;;;;15.95;8.52;;;18.60;68.00;;;;;;4972549;28;20052;-93
2021/09/01 11:47:42;;;;;;;15.95;8.35;;;18.70;67.90;;;;;;4978159;28;20429;-93
2021/09/01 11:50:10;;;;;;;16.45;7.82;;;18.70;67.90;;;;;;4959798;28;20056;-93
2021/09/01 11:52:38;;;;;;;16.30;8.32;;;18.80;67.80;;;;;;4970293;28;20066;-92
2021/09/01 11:55:05;;;;;;;15.52;8.20;;;18.90;67.50;;;;;;4949028;28;20053;-91
2021/09/01 11:57:33;;;;;;;21.70;8.30;;;19.00;67.10;;;;;;4967275;28;20441;-92
2021/09/01 12:00:06;;;;;;;19.17;7.68;;;19.10;66.40;;;;;;4973300;28;20086;-92
2021/09/01 12:02:34;;;;;;;18.75;7.88;;;19.20;66.10;;;;;;4973739;28;20062;-93
2021/09/01 12:05:01;;;;;;;16.08;7.38;;;19.40;66.20;;;;;;4939978;29;20059;-93
2021/09/01 12:07:35;;;;;;;18.08;7.30;;;19.40;65.60;;;;;;4960937;28;20051;-92
2021/09/01 12:10:08;;;;;;;15.60;6.38;;;19.40;65.40;;;;;;4947809;28;20055;-92
2021/09/01 12:12:57;;;;;;;14.25;7.25;;;19.50;65.40;;;;;;4963396;28;20047;-95
2021/09/01 12:15:26;;;;;;;14.60;7.13;;;19.50;65.30;;;;;;4963096;28;20052;-94
2021/09/01 12:18:06;;;;;;;11.82;6.40;;;19.50;65.00;;;;;;4975875;28;20063;-93
2021/09/01 12:20:36;;;;;;;14.40;6.80;;;19.60;64.80;;;;;;4958617;28;20115;-92
2021/09/01 12:23:14;;;;;;;13.87;6.37;;;19.60;65.00;;;;;;4944635;28;20047;-95
2021/09/01 12:25:42;;;;;;;13.05;6.53;;;19.60;65.20;;;;;;4976037;28;20055;-93
2021/09/01 12:28:11;;;;;;;14.30;6.35;;;19.60;65.50;;;;;;4967791;28;20052;-94
2021/09/01 12:30:45;;;;;;;16.13;6.40;;;19.70;65.80;;;;;;4956300;29;20068;-94
2021/09/01 12:33:13;;;;;;;14.45;6.60;;;19.70;64.80;;;;;;4969185;28;20067;-91
2021/09/01 12:35:41;;;;;;;14.57;6.90;;;19.70;64.40;;;;;;4975467;28;20410;-94
2021/09/01 12:38:22;;;;;;;13.80;6.55;;;19.70;64.40;;;;;;4965942;28;20071;-93
2021/09/01 12:40:49;;;;;;;14.27;6.40;;;19.80;64.50;;;;;;4966136;28;20107;-93
2021/09/01 12:43:16;;;;;;;15.85;6.68;;;19.80;64.30;;;;;;4967944;28;20446;-94
2021/09/01 12:45:44;;;;;;;13.85;6.20;;;19.80;64.40;;;;;;4966699;28;20055;-92
2021/09/01 12:48:17;;;;;;;15.38;6.78;;;19.90;64.80;;;;;;4977154;28;20052;-93